Time;durP1;ratioP1;P1;durP2;ratioP2;P2;SDS_P1;SDS_P2;PMS_P1;PMS_P2;Temp;Humidity;BMP_temperature;BMP_pressure;BME280_temperature;BME280_humidity;BME280_pressure;Samples;Min_cycle;Max_cycle;Signal;HPM_P1;HPM_P2
2022/03/16 00:00:29;;;;;;;2.13;2.03;;;;;;;;;;5010756;28;20267;-75
2022/03/16 00:02:56;;;;;;;0.00;0.00;;;;;;;;;;5011069;28;20204;-75
2022/03/16 00:05:23;;;;;;;0.00;0.00;;;;;;;;;;5020214;28;20657;-75
2022/03/16 00:07:51;;;;;;;0.00;0.00;;;;;;;;;;4996632;28;20206;-76
2022/03/16 00:10:20;;;;;;;0.00;0.00;;;;;;;;;;4991779;28;20285;-75
2022/03/16 00:12:47;;;;;;;0.00;0.00;;;;;;;;;;4991950;28;20205;-75
2022/03/16 00:15:15;;;;;;;0.00;0.00;;;;;;;;;;5005956;28;20209;-74
2022/03/16 00:17:42;;;;;;;0.00;0.00;;;;;;;;;;5007629;28;20212;-71
2022/03/16 00:20:10;;;;;;;0.00;0.00;;;;;;;;;;5002993;28;20200;-77
2022/03/16 00:22:37;;;;;;;0.00;0.00;;;;;;;;;;5028291;28;20741;-74
2022/03/16 00:25:05;;;;;;;0.00;0.00;;;;;;;;;;5026616;28;20193;-76
2022/03/16 00:27:35;;;;;;;0.00;0.00;;;;;;;;;;5005176;28;20213;-75
2022/03/16 00:30:02;;;;;;;0.00;0.00;;;;;;;;;;5012039;28;20243;-75
2022/03/16 00:32:29;;;;;;;0.00;0.00;;;;;;;;;;5013750;28;20197;-74
2022/03/16 00:34:57;;;;;;;0.00;0.00;;;;;;;;;;5002214;28;20228;-76
2022/03/16 00:37:24;;;;;;;0.00;0.00;;;;;;;;;;5014679;28;20547;-74
2022/03/16 00:39:51;;;;;;;0.00;0.00;;;;;;;;;;5014582;28;20193;-76
2022/03/16 00:42:19;;;;;;;0.00;0.00;;;;;;;;;;5013505;28;20658;-76
2022/03/16 00:44:48;;;;;;;0.00;0.00;;;;;;;;;;5014085;28;20216;-75
2022/03/16 00:47:16;;;;;;;0.00;0.00;;;;;;;;;;5014246;28;20193;-74
2022/03/16 00:49:44;;;;;;;0.00;0.00;;;;;;;;;;5005726;28;20236;-73
2022/03/16 00:52:11;;;;;;;0.00;0.00;;;;;;;;;;5007848;28;20581;-75
2022/03/16 00:54:39;;;;;;;0.00;0.00;;;;;;;;;;5014142;28;20211;-74
2022/03/16 00:57:06;;;;;;;0.00;0.00;;;;;;;;;;5014088;28;20207;-74
2022/03/16 00:59:33;;;;;;;0.00;0.00;;;;;;;;;;5013290;28;20204;-74
2022/03/16 01:02:02;;;;;;;0.20;0.20;;;;;;;;;;5013251;28;20588;-74
2022/03/16 01:04:29;;;;;;;0.00;0.00;;;;;;;;;;5008777;28;20196;-75
2022/03/16 01:06:57;;;;;;;0.00;0.00;;;;;;;;;;5034022;28;20200;-75
2022/03/16 01:09:25;;;;;;;0.20;0.07;;;;;;;;;;5025970;28;20244;-75
2022/03/16 01:11:52;;;;;;;1.27;0.47;;;;;;;;;;5011985;28;20292;-75
2022/03/16 01:14:20;;;;;;;0.00;0.00;;;;;;;;;;5013855;28;20197;-75
2022/03/16 01:16:47;;;;;;;0.13;0.13;;;;;;;;;;5013160;28;20208;-75
2022/03/16 01:19:16;;;;;;;0.20;0.20;;;;;;;;;;5006225;28;20200;-75
2022/03/16 01:21:44;;;;;;;1.07;1.07;;;;;;;;;;5012947;28;20212;-74
2022/03/16 01:24:13;;;;;;;0.00;0.00;;;;;;;;;;5013018;28;20208;-74
2022/03/16 01:26:40;;;;;;;0.00;0.00;;;;;;;;;;5013232;28;20212;-75
2022/03/16 01:29:08;;;;;;;0.00;0.00;;;;;;;;;;4994943;28;20225;-75
2022/03/16 01:31:36;;;;;;;0.57;0.57;;;;;;;;;;5006265;28;20203;-75
2022/03/16 01:34:03;;;;;;;0.00;0.00;;;;;;;;;;5013591;28;20193;-74
2022/03/16 01:36:32;;;;;;;1.10;0.90;;;;;;;;;;5018250;28;20205;-75
2022/03/16 01:38:59;;;;;;;0.00;0.00;;;;;;;;;;5033431;28;20281;-75
2022/03/16 01:41:27;;;;;;;0.10;0.10;;;;;;;;;;5012330;28;20209;-74
2022/03/16 01:43:55;;;;;;;0.67;0.67;;;;;;;;;;5004998;28;20216;-74
2022/03/16 01:46:22;;;;;;;0.10;0.10;;;;;;;;;;5013092;28;20642;-74
2022/03/16 01:48:49;;;;;;;0.20;0.20;;;;;;;;;;5012080;28;21910;-74
2022/03/16 01:51:17;;;;;;;0.60;0.60;;;;;;;;;;5010877;28;20239;-75
2022/03/16 01:53:46;;;;;;;0.00;0.00;;;;;;;;;;5013163;28;20201;-75
2022/03/16 01:56:13;;;;;;;0.70;0.53;;;;;;;;;;5012473;28;20204;-75
2022/03/16 01:58:40;;;;;;;0.47;0.47;;;;;;;;;;4993327;28;20202;-75
2022/03/16 02:01:08;;;;;;;0.00;0.00;;;;;;;;;;5006902;28;20239;-74
2022/03/16 02:03:35;;;;;;;1.30;1.20;;;;;;;;;;5013998;28;20231;-74
2022/03/16 02:06:03;;;;;;;2.27;2.07;;;;;;;;;;5014524;28;20208;-73
2022/03/16 02:08:31;;;;;;;0.47;0.47;;;;;;;;;;5012439;28;20216;-73
2022/03/16 02:11:00;;;;;;;0.20;0.20;;;;;;;;;;5011345;28;20197;-74
2022/03/16 02:13:27;;;;;;;0.00;0.00;;;;;;;;;;4993224;28;20574;-75
2022/03/16 02:15:55;;;;;;;2.20;2.00;;;;;;;;;;4993209;28;20198;-75
2022/03/16 02:18:22;;;;;;;0.30;0.30;;;;;;;;;;5010831;28;20204;-74
2022/03/16 02:20:52;;;;;;;0.93;0.70;;;;;;;;;;5007458;28;20201;-73
2022/03/16 02:23:21;;;;;;;2.47;1.80;;;;;;;;;;5001598;28;20259;-74
2022/03/16 02:25:49;;;;;;;1.90;1.80;;;;;;;;;;5023288;28;20197;-74
2022/03/16 02:28:17;;;;;;;0.37;0.37;;;;;;;;;;4992825;28;20642;-75
2022/03/16 02:30:44;;;;;;;0.00;0.00;;;;;;;;;;4999801;28;20260;-74
2022/03/16 02:33:11;;;;;;;0.00;0.00;;;;;;;;;;5012716;28;20212;-74
2022/03/16 02:35:39;;;;;;;0.13;0.13;;;;;;;;;;5011414;28;20200;-75
2022/03/16 02:38:06;;;;;;;0.40;0.40;;;;;;;;;;5026860;28;20208;-74
2022/03/16 02:40:35;;;;;;;1.67;1.57;;;;;;;;;;5018985;28;20208;-75
2022/03/16 02:43:03;;;;;;;3.80;2.40;;;;;;;;;;4993137;28;20217;-73
2022/03/16 02:45:30;;;;;;;0.87;0.87;;;;;;;;;;4992735;28;20201;-74
2022/03/16 02:47:57;;;;;;;0.20;0.20;;;;;;;;;;4992598;28;20605;-74
2022/03/16 02:50:25;;;;;;;0.60;0.60;;;;;;;;;;4996146;28;20716;-74
2022/03/16 02:52:53;;;;;;;0.40;0.30;;;;;;;;;;5024983;28;20232;-74
2022/03/16 02:55:20;;;;;;;0.00;0.00;;;;;;;;;;5009708;28;20569;-74
2022/03/16 02:57:49;;;;;;;0.00;0.00;;;;;;;;;;4992067;28;20674;-73
2022/03/16 03:00:17;;;;;;;0.53;0.50;;;;;;;;;;4994992;28;20229;-74
2022/03/16 03:02:44;;;;;;;3.57;3.40;;;;;;;;;;5011614;28;20204;-73
2022/03/16 03:05:12;;;;;;;0.20;0.20;;;;;;;;;;5011267;28;20712;-74
2022/03/16 03:07:39;;;;;;;0.10;0.10;;;;;;;;;;5024407;28;20208;-73
2022/03/16 03:10:07;;;;;;;0.43;0.43;;;;;;;;;;5028447;28;20213;-73
2022/03/16 03:12:35;;;;;;;0.30;0.30;;;;;;;;;;5018619;28;20565;-73
2022/03/16 03:15:06;;;;;;;0.20;0.20;;;;;;;;;;5031396;28;20208;-70
2022/03/16 03:17:33;;;;;;;0.63;0.63;;;;;;;;;;5031617;28;20202;-74
2022/03/16 03:20:01;;;;;;;0.33;0.33;;;;;;;;;;5018683;28;20251;-74
2022/03/16 03:22:28;;;;;;;0.30;0.30;;;;;;;;;;5011582;28;20201;-74
2022/03/16 03:24:56;;;;;;;0.00;0.00;;;;;;;;;;5010736;28;20685;-74
2022/03/16 03:27:23;;;;;;;0.00;0.00;;;;;;;;;;5011841;28;20204;-74
2022/03/16 03:29:50;;;;;;;0.00;0.00;;;;;;;;;;5010712;28;20235;-73
2022/03/16 03:32:19;;;;;;;0.00;0.00;;;;;;;;;;5010970;28;20201;-74
2022/03/16 03:34:50;;;;;;;0.00;0.00;;;;;;;;;;5005899;28;20208;-74
2022/03/16 03:37:17;;;;;;;0.00;0.00;;;;;;;;;;5011787;28;20232;-74
2022/03/16 03:39:46;;;;;;;0.07;0.07;;;;;;;;;;5009862;28;20199;-74
2022/03/16 03:42:13;;;;;;;0.93;0.93;;;;;;;;;;5024497;28;20226;-74
2022/03/16 03:44:41;;;;;;;0.00;0.00;;;;;;;;;;5031240;28;20513;-74
2022/03/16 03:47:09;;;;;;;0.00;0.00;;;;;;;;;;5031532;28;20208;-74
2022/03/16 03:49:39;;;;;;;0.00;0.00;;;;;;;;;;5005458;28;20335;-74
2022/03/16 03:52:07;;;;;;;0.00;0.00;;;;;;;;;;5010686;28;20573;-74
2022/03/16 03:54:35;;;;;;;0.30;0.30;;;;;;;;;;5011430;28;20220;-73
2022/03/16 03:57:02;;;;;;;0.47;0.47;;;;;;;;;;5024177;28;20653;-74
2022/03/16 03:59:29;;;;;;;0.00;0.00;;;;;;;;;;5024976;28;20673;-74
2022/03/16 04:01:56;;;;;;;0.00;0.00;;;;;;;;;;5011724;28;20203;-75
2022/03/16 04:04:24;;;;;;;0.00;0.00;;;;;;;;;;4999814;28;20197;-74
2022/03/16 04:06:53;;;;;;;0.00;0.00;;;;;;;;;;5014290;28;20658;-74
2022/03/16 04:09:20;;;;;;;0.10;0.10;;;;;;;;;;5014194;28;20201;-75
2022/03/16 04:11:48;;;;;;;0.10;0.10;;;;;;;;;;5032331;28;20283;-74
2022/03/16 04:14:16;;;;;;;0.00;0.00;;;;;;;;;;5034952;28;20204;-73
2022/03/16 04:16:43;;;;;;;0.00;0.00;;;;;;;;;;5034624;28;20201;-75
2022/03/16 04:19:10;;;;;;;0.37;0.37;;;;;;;;;;5012376;28;20567;-75
2022/03/16 04:21:38;;;;;;;0.10;0.10;;;;;;;;;;5023125;28;20669;-74
2022/03/16 04:24:07;;;;;;;0.00;0.00;;;;;;;;;;5030639;28;20660;-73
2022/03/16 04:26:35;;;;;;;0.00;0.00;;;;;;;;;;4994650;28;20206;-74
2022/03/16 04:29:02;;;;;;;0.03;0.03;;;;;;;;;;5000293;28;20201;-75
2022/03/16 04:31:29;;;;;;;0.00;0.00;;;;;;;;;;5014812;28;20251;-75
2022/03/16 04:33:57;;;;;;;0.00;0.00;;;;;;;;;;5015081;28;20201;-75
2022/03/16 04:36:26;;;;;;;1.63;1.53;;;;;;;;;;5013910;28;20212;-74
2022/03/16 04:38:55;;;;;;;0.00;0.00;;;;;;;;;;5013820;28;20193;-75
2022/03/16 04:41:24;;;;;;;0.40;0.30;;;;;;;;;;5013234;28;20197;-74
2022/03/16 04:43:51;;;;;;;1.30;0.93;;;;;;;;;;5014629;28;20292;-74
2022/03/16 04:46:19;;;;;;;0.83;0.83;;;;;;;;;;5014444;28;20197;-75
2022/03/16 04:48:46;;;;;;;0.20;0.20;;;;;;;;;;5008314;28;20232;-73
2022/03/16 04:51:14;;;;;;;1.13;1.13;;;;;;;;;;5018347;28;20228;-76
2022/03/16 04:53:42;;;;;;;0.63;0.50;;;;;;;;;;5014609;28;20205;-74
2022/03/16 04:56:09;;;;;;;0.00;0.00;;;;;;;;;;5014639;28;20209;-72
2022/03/16 04:58:38;;;;;;;0.90;0.77;;;;;;;;;;5012996;28;20206;-72
2022/03/16 05:01:05;;;;;;;0.67;0.67;;;;;;;;;;5013928;28;20256;-73
2022/03/16 05:03:32;;;;;;;0.87;0.87;;;;;;;;;;5007816;28;20658;-75
2022/03/16 05:06:00;;;;;;;1.53;1.43;;;;;;;;;;5013954;28;20215;-73
2022/03/16 05:08:27;;;;;;;3.70;3.40;;;;;;;;;;4994719;28;20667;-76
2022/03/16 05:10:54;;;;;;;1.13;1.13;;;;;;;;;;4994641;28;20236;-75
2022/03/16 05:13:22;;;;;;;2.60;2.43;;;;;;;;;;5000873;28;20581;-75
2022/03/16 05:15:50;;;;;;;3.10;2.03;;;;;;;;;;5013788;28;20211;-75
2022/03/16 05:18:18;;;;;;;1.43;1.33;;;;;;;;;;5021087;28;20201;-74
2022/03/16 05:20:45;;;;;;;0.00;0.00;;;;;;;;;;5033055;28;20211;-75
2022/03/16 05:23:13;;;;;;;0.00;0.00;;;;;;;;;;5017358;28;20204;-74
2022/03/16 05:25:41;;;;;;;1.37;1.30;;;;;;;;;;4994373;28;20202;-75
2022/03/16 05:28:09;;;;;;;4.37;2.03;;;;;;;;;;4994240;28;20198;-74
2022/03/16 05:30:36;;;;;;;1.60;1.37;;;;;;;;;;4993678;28;20237;-73
2022/03/16 05:33:05;;;;;;;0.77;0.77;;;;;;;;;;5003765;28;20228;-75
2022/03/16 05:35:33;;;;;;;0.20;0.20;;;;;;;;;;5013776;28;20200;-76
2022/03/16 05:38:02;;;;;;;2.07;1.87;;;;;;;;;;5013682;28;20201;-74
2022/03/16 05:40:30;;;;;;;1.60;1.50;;;;;;;;;;5013386;28;20608;-76
2022/03/16 05:42:57;;;;;;;0.03;0.03;;;;;;;;;;5012730;28;20205;-76
2022/03/16 05:45:25;;;;;;;0.00;0.00;;;;;;;;;;5013359;28;20201;-76
2022/03/16 05:47:52;;;;;;;2.27;1.50;;;;;;;;;;5013193;28;20577;-75
2022/03/16 05:50:21;;;;;;;0.37;0.37;;;;;;;;;;5003139;28;20448;-75
2022/03/16 05:52:48;;;;;;;0.00;0.00;;;;;;;;;;5012460;28;20205;-75
2022/03/16 05:55:16;;;;;;;3.40;0.43;;;;;;;;;;5012599;28;20205;-75
2022/03/16 05:57:44;;;;;;;0.00;0.00;;;;;;;;;;5011367;28;20299;-75
2022/03/16 06:00:14;;;;;;;0.13;0.13;;;;;;;;;;5011188;28;20229;-75
2022/03/16 06:02:42;;;;;;;5.20;3.73;;;;;;;;;;4996129;28;20570;-73
2022/03/16 06:05:10;;;;;;;0.20;0.20;;;;;;;;;;5006567;28;20248;-74
2022/03/16 06:07:39;;;;;;;1.77;1.67;;;;;;;;;;5031430;28;20284;-74
2022/03/16 06:10:07;;;;;;;3.13;2.90;;;;;;;;;;5032519;28;20318;-74
2022/03/16 06:12:34;;;;;;;0.73;0.73;;;;;;;;;;5012860;28;20205;-75
2022/03/16 06:15:01;;;;;;;5.20;1.90;;;;;;;;;;5013083;28;20569;-75
2022/03/16 06:17:29;;;;;;;2.20;2.10;;;;;;;;;;5001354;28;20288;-75
2022/03/16 06:19:56;;;;;;;1.17;1.07;;;;;;;;;;4997207;28;20585;-74
2022/03/16 06:22:23;;;;;;;5.03;3.13;;;;;;;;;;5021975;28;20299;-73
2022/03/16 06:24:52;;;;;;;1.67;1.53;;;;;;;;;;5011880;28;20204;-75
2022/03/16 06:27:19;;;;;;;3.40;0.93;;;;;;;;;;5010192;28;20679;-75
2022/03/16 06:29:47;;;;;;;3.87;2.83;;;;;;;;;;5012324;28;20205;-75
2022/03/16 06:32:14;;;;;;;2.57;1.50;;;;;;;;;;5012673;28;20237;-75
2022/03/16 06:34:41;;;;;;;6.90;4.47;;;;;;;;;;5012512;28;20209;-74
2022/03/16 06:37:09;;;;;;;3.87;2.87;;;;;;;;;;5032226;28;20206;-74
2022/03/16 06:39:36;;;;;;;1.00;1.00;;;;;;;;;;5032014;28;20665;-74
2022/03/16 06:42:05;;;;;;;1.83;1.73;;;;;;;;;;5013245;28;20681;-73
2022/03/16 06:44:33;;;;;;;4.70;4.10;;;;;;;;;;5009428;28;20207;-75
2022/03/16 06:47:00;;;;;;;6.53;4.10;;;;;;;;;;5011170;28;20287;-75
2022/03/16 06:49:27;;;;;;;4.73;2.90;;;;;;;;;;5012771;28;20209;-75
2022/03/16 06:51:55;;;;;;;0.00;0.00;;;;;;;;;;5030862;28;20223;-76
2022/03/16 06:54:22;;;;;;;1.60;1.47;;;;;;;;;;5013954;28;20205;-74
2022/03/16 06:56:49;;;;;;;2.40;2.30;;;;;;;;;;5012487;28;20196;-75
2022/03/16 06:59:18;;;;;;;1.73;1.23;;;;;;;;;;5000474;28;20197;-73
2022/03/16 07:01:45;;;;;;;0.20;0.20;;;;;;;;;;5019531;28;20207;-74
2022/03/16 07:04:13;;;;;;;1.07;1.07;;;;;;;;;;5010411;28;20211;-74
2022/03/16 07:06:40;;;;;;;0.00;0.00;;;;;;;;;;5026910;28;20200;-74
2022/03/16 07:09:07;;;;;;;0.07;0.07;;;;;;;;;;5002836;28;20204;-74
2022/03/16 07:11:35;;;;;;;0.00;0.00;;;;;;;;;;5002810;28;20225;-75
2022/03/16 07:16:48;;;;;;;4.40;2.53;;;;;;;;;;5002772;28;20212;-74
2022/03/16 07:19:16;;;;;;;0.47;0.47;;;;;;;;;;4995578;28;20212;-74
2022/03/16 07:21:43;;;;;;;1.70;1.60;;;;;;;;;;4992165;28;20208;-74
2022/03/16 07:24:11;;;;;;;1.67;1.37;;;;;;;;;;5005807;28;20216;-74
2022/03/16 07:26:39;;;;;;;5.17;3.40;;;;;;;;;;5011360;28;20205;-74
2022/03/16 07:29:06;;;;;;;3.10;2.80;;;;;;;;;;5002700;28;20212;-74
2022/03/16 07:31:34;;;;;;;1.17;1.07;;;;;;;;;;5007816;28;20266;-75
2022/03/16 07:34:03;;;;;;;0.40;0.40;;;;;;;;;;4996881;28;20206;-74
2022/03/16 07:36:31;;;;;;;0.67;0.67;;;;;;;;;;4996971;28;20642;-74
2022/03/16 07:38:59;;;;;;;1.53;1.23;;;;;;;;;;4997111;28;20288;-70
2022/03/16 07:41:26;;;;;;;2.23;2.07;;;;;;;;;;4996803;28;20205;-73
2022/03/16 07:43:53;;;;;;;5.53;4.07;;;;;;;;;;5021083;28;20212;-76
2022/03/16 07:46:21;;;;;;;4.50;2.90;;;;;;;;;;5002659;28;20201;-70
2022/03/16 07:48:48;;;;;;;2.97;2.53;;;;;;;;;;5014567;28;20201;-73
2022/03/16 07:51:17;;;;;;;1.80;1.70;;;;;;;;;;5014700;28;20263;-72
2022/03/16 07:53:44;;;;;;;6.67;1.67;;;;;;;;;;5014923;28;20212;-73
2022/03/16 07:56:12;;;;;;;1.63;1.53;;;;;;;;;;5017421;28;20205;-72
2022/03/16 07:58:41;;;;;;;0.37;0.37;;;;;;;;;;5028320;28;20652;-74
2022/03/16 08:01:08;;;;;;;3.97;3.47;;;;;;;;;;5034904;28;20330;-73
2022/03/16 08:03:35;;;;;;;1.37;1.10;;;;;;;;;;5014534;28;20203;-73
2022/03/16 08:06:03;;;;;;;0.53;0.53;;;;;;;;;;5012206;28;20224;-72
2022/03/16 08:08:32;;;;;;;1.27;1.17;;;;;;;;;;5015264;28;20577;-73
2022/03/16 08:10:59;;;;;;;3.33;2.93;;;;;;;;;;5015861;28;20228;-77
2022/03/16 08:13:27;;;;;;;3.00;1.70;;;;;;;;;;5030645;28;20601;-76
2022/03/16 08:15:54;;;;;;;0.33;0.33;;;;;;;;;;5022235;28;20568;-71
2022/03/16 08:18:22;;;;;;;4.47;3.27;;;;;;;;;;5004175;28;20198;-71
2022/03/16 08:20:49;;;;;;;1.40;0.83;;;;;;;;;;5012078;28;20577;-71
2022/03/16 08:23:18;;;;;;;3.87;2.17;;;;;;;;;;5011694;28;20203;-72
2022/03/16 08:25:47;;;;;;;3.63;2.90;;;;;;;;;;5002722;28;20962;-72
2022/03/16 08:28:15;;;;;;;2.50;1.87;;;;;;;;;;5009207;28;20637;-72
2022/03/16 08:30:42;;;;;;;1.53;1.43;;;;;;;;;;5003090;28;20216;-73
2022/03/16 08:33:09;;;;;;;1.47;1.37;;;;;;;;;;5014681;28;20197;-73
2022/03/16 08:35:37;;;;;;;0.00;0.00;;;;;;;;;;5010308;28;20225;-73
2022/03/16 08:38:04;;;;;;;1.30;1.30;;;;;;;;;;5004473;28;20240;-72
2022/03/16 08:40:32;;;;;;;5.87;4.43;;;;;;;;;;5004787;28;20224;-72
2022/03/16 08:43:00;;;;;;;1.60;1.23;;;;;;;;;;4998841;28;20202;-72
2022/03/16 08:45:28;;;;;;;0.70;0.70;;;;;;;;;;5001759;28;20197;-71
2022/03/16 08:47:55;;;;;;;1.83;1.17;;;;;;;;;;4998624;28;20200;-72
2022/03/16 08:50:23;;;;;;;3.67;2.70;;;;;;;;;;5013590;28;20296;-71
2022/03/16 08:52:50;;;;;;;2.87;1.77;;;;;;;;;;5011783;28;20580;-72
2022/03/16 08:55:17;;;;;;;1.03;1.03;;;;;;;;;;5022560;28;20206;-72
2022/03/16 08:57:45;;;;;;;2.83;2.43;;;;;;;;;;5029440;28;20193;-72
2022/03/16 09:00:15;;;;;;;1.50;1.40;;;;;;;;;;5014117;28;20237;-71
2022/03/16 09:02:43;;;;;;;1.70;1.37;;;;;;;;;;5011958;28;20232;-72
2022/03/16 09:05:12;;;;;;;2.33;2.20;;;;;;;;;;5013867;28;20197;-70
2022/03/16 09:07:39;;;;;;;0.80;0.80;;;;;;;;;;5012667;28;20204;-72
2022/03/16 09:10:08;;;;;;;2.13;1.30;;;;;;;;;;5024743;28;20205;-72
2022/03/16 09:12:36;;;;;;;0.77;0.77;;;;;;;;;;5025428;28;20266;-72
2022/03/16 09:15:04;;;;;;;0.00;0.00;;;;;;;;;;5017531;28;20658;-70
2022/03/16 09:17:33;;;;;;;4.53;4.13;;;;;;;;;;5017670;28;20203;-75
2022/03/16 09:20:01;;;;;;;0.10;0.10;;;;;;;;;;5011934;28;20207;-73
2022/03/16 09:22:28;;;;;;;0.10;0.10;;;;;;;;;;5011818;28;20201;-72
2022/03/16 09:24:57;;;;;;;2.17;1.53;;;;;;;;;;5003619;28;20201;-70
2022/03/16 09:27:24;;;;;;;0.00;0.00;;;;;;;;;;5013914;28;20201;-72
2022/03/16 09:29:53;;;;;;;0.40;0.30;;;;;;;;;;5006825;28;20265;-73
2022/03/16 09:32:22;;;;;;;2.63;1.97;;;;;;;;;;4993971;28;20225;-71
2022/03/16 09:34:51;;;;;;;0.00;0.00;;;;;;;;;;5006926;28;20201;-72
2022/03/16 09:37:18;;;;;;;1.23;1.13;;;;;;;;;;5003197;28;20201;-72
2022/03/16 09:39:46;;;;;;;1.40;0.93;;;;;;;;;;5017526;28;20200;-72
2022/03/16 09:42:13;;;;;;;2.20;2.10;;;;;;;;;;5010918;28;20295;-71
2022/03/16 09:44:41;;;;;;;2.10;0.57;;;;;;;;;;5007272;28;20205;-72
2022/03/16 09:47:09;;;;;;;4.00;2.43;;;;;;;;;;5013099;28;20201;-71
2022/03/16 09:49:38;;;;;;;0.40;0.13;;;;;;;;;;4995729;28;20272;-73
2022/03/16 09:52:09;;;;;;;0.33;0.33;;;;;;;;;;4998736;28;20221;-73
2022/03/16 09:54:36;;;;;;;0.93;0.93;;;;;;;;;;5010679;28;20196;-73
2022/03/16 09:57:04;;;;;;;2.57;1.70;;;;;;;;;;5013154;28;20201;-72
2022/03/16 09:59:31;;;;;;;0.00;0.00;;;;;;;;;;5012727;28;20283;-72
2022/03/16 10:02:00;;;;;;;0.73;0.73;;;;;;;;;;5008589;28;20205;-72
2022/03/16 10:04:31;;;;;;;0.33;0.33;;;;;;;;;;5003088;28;20276;-73
2022/03/16 10:07:00;;;;;;;1.40;1.30;;;;;;;;;;5004773;28;20271;-73
2022/03/16 10:15:04;;;;;;;0.27;0.27;;;;;;;;;;5006539;28;20351;-71
2022/03/16 10:17:46;;;;;;;1.07;0.97;;;;;;;;;;4998014;28;20201;-71
2022/03/16 10:20:27;;;;;;;0.57;0.57;;;;;;;;;;5009333;28;20201;-71
2022/03/16 10:22:55;;;;;;;0.00;0.00;;;;;;;;;;5012307;28;20196;-73
2022/03/16 10:25:24;;;;;;;1.50;1.43;;;;;;;;;;5012245;28;20201;-72
2022/03/16 10:27:52;;;;;;;0.00;0.00;;;;;;;;;;5012599;28;20201;-71
2022/03/16 10:30:20;;;;;;;0.30;0.30;;;;;;;;;;5008401;28;20642;-71
2022/03/16 10:32:54;;;;;;;0.47;0.40;;;;;;;;;;5006129;28;20226;-71
2022/03/16 10:35:23;;;;;;;0.20;0.20;;;;;;;;;;4993112;28;20197;-72
2022/03/16 10:37:51;;;;;;;1.30;0.83;;;;;;;;;;4992830;28;20296;-72
2022/03/16 10:40:23;;;;;;;4.63;2.90;;;;;;;;;;5007987;28;20736;-71
2022/03/16 10:48:23;;;;;;;0.00;0.00;;;;;;;;;;4993733;28;20208;-70
2022/03/16 10:50:57;;;;;;;0.73;0.73;;;;;;;;;;5012382;28;20197;-71
2022/03/16 10:53:29;;;;;;;0.13;0.13;;;;;;;;;;5011226;28;20239;-71
2022/03/16 10:55:58;;;;;;;0.00;0.00;;;;;;;;;;4992823;28;20285;-71
2022/03/16 10:58:27;;;;;;;2.50;1.60;;;;;;;;;;4993495;28;20210;-71
2022/03/16 11:00:56;;;;;;;0.90;0.90;;;;;;;;;;5002952;28;20271;-73
2022/03/16 11:03:25;;;;;;;2.30;1.87;;;;;;;;;;5000869;28;20575;-71
2022/03/16 11:05:53;;;;;;;0.13;0.13;;;;;;;;;;5010344;28;20289;-71
2022/03/16 11:08:21;;;;;;;0.40;0.40;;;;;;;;;;4993066;28;20202;-72
2022/03/16 11:10:48;;;;;;;1.90;1.10;;;;;;;;;;5000000;28;20194;-71
2022/03/16 11:13:32;;;;;;;0.47;0.47;;;;;;;;;;5003371;28;20593;-71
2022/03/16 11:16:02;;;;;;;0.00;0.00;;;;;;;;;;4999199;28;20215;-74
2022/03/16 11:18:29;;;;;;;2.83;1.93;;;;;;;;;;5002736;28;20564;-72
2022/03/16 11:20:58;;;;;;;0.00;0.00;;;;;;;;;;5014373;28;20211;-71
2022/03/16 11:26:24;;;;;;;1.43;1.33;;;;;;;;;;4997101;28;20601;-71
2022/03/16 11:28:56;;;;;;;0.20;0.20;;;;;;;;;;5008137;28;20279;-71
2022/03/16 11:31:31;;;;;;;0.00;0.00;;;;;;;;;;5006643;28;20205;-70
2022/03/16 11:34:02;;;;;;;0.50;0.50;;;;;;;;;;4994733;28;20196;-70
2022/03/16 11:36:35;;;;;;;0.50;0.30;;;;;;;;;;4998340;28;20206;-70
2022/03/16 11:39:03;;;;;;;3.33;3.03;;;;;;;;;;4988976;28;20197;-70
2022/03/16 11:41:30;;;;;;;0.00;0.00;;;;;;;;;;5005262;28;20236;-70
2022/03/16 11:44:03;;;;;;;0.63;0.63;;;;;;;;;;5012137;28;20205;-70
2022/03/16 11:46:33;;;;;;;2.07;1.97;;;;;;;;;;4998996;28;20696;-70
2022/03/16 11:49:04;;;;;;;0.00;0.00;;;;;;;;;;4991551;28;20570;-72
2022/03/16 11:51:32;;;;;;;2.00;1.23;;;;;;;;;;4988440;28;20209;-71
2022/03/16 11:54:07;;;;;;;3.73;2.53;;;;;;;;;;4988107;28;20793;-70
2022/03/16 11:56:58;;;;;;;0.10;0.10;;;;;;;;;;4986351;28;20252;-71
2022/03/16 11:59:33;;;;;;;0.20;0.20;;;;;;;;;;4972892;28;20210;-73
2022/03/16 12:02:10;;;;;;;3.40;1.97;;;;;;;;;;4992476;28;20689;-72
2022/03/16 12:04:40;;;;;;;0.00;0.00;;;;;;;;;;4987674;28;20978;-71
2022/03/16 12:07:09;;;;;;;0.30;0.30;;;;;;;;;;4992662;28;20200;-70
2022/03/16 12:09:39;;;;;;;0.60;0.60;;;;;;;;;;4989585;28;20205;-74
2022/03/16 12:15:19;;;;;;;1.77;1.63;;;;;;;;;;4993047;28;20219;-71
2022/03/16 12:18:07;;;;;;;2.43;1.10;;;;;;;;;;5009980;28;20231;-71
2022/03/16 12:20:38;;;;;;;0.40;0.40;;;;;;;;;;4994258;28;20198;-71
2022/03/16 12:23:09;;;;;;;1.37;1.20;;;;;;;;;;4992448;28;20409;-71
2022/03/16 12:25:39;;;;;;;0.00;0.00;;;;;;;;;;4989974;28;20314;-71
2022/03/16 12:30:54;;;;;;;0.13;0.13;;;;;;;;;;4994783;28;20605;-70
2022/03/16 12:33:23;;;;;;;0.97;0.40;;;;;;;;;;4993090;28;20643;-71
2022/03/16 12:35:53;;;;;;;1.77;1.67;;;;;;;;;;4994057;28;20549;-71
2022/03/16 12:38:21;;;;;;;0.00;0.00;;;;;;;;;;4993478;28;20667;-71
2022/03/16 12:43:34;;;;;;;0.60;0.47;;;;;;;;;;4998735;28;20681;-71
2022/03/16 12:46:09;;;;;;;1.03;1.03;;;;;;;;;;4993535;28;20202;-70
2022/03/16 12:48:37;;;;;;;0.00;0.00;;;;;;;;;;4993553;28;20496;-70
2022/03/16 12:51:06;;;;;;;1.27;0.73;;;;;;;;;;4993274;28;20303;-71
2022/03/16 12:53:44;;;;;;;0.00;0.00;;;;;;;;;;4992023;28;20229;-70
2022/03/16 12:56:12;;;;;;;1.00;0.80;;;;;;;;;;4992453;28;20566;-70
2022/03/16 12:58:41;;;;;;;2.50;2.13;;;;;;;;;;4992067;28;20225;-70
2022/03/16 13:01:17;;;;;;;1.13;1.07;;;;;;;;;;4995176;28;20229;-70
2022/03/16 13:03:44;;;;;;;0.57;0.57;;;;;;;;;;4992557;28;20691;-71
2022/03/16 13:06:18;;;;;;;0.00;0.00;;;;;;;;;;4992788;28;20202;-71
2022/03/16 13:08:50;;;;;;;1.67;1.40;;;;;;;;;;4992259;28;20197;-69
2022/03/16 13:11:24;;;;;;;1.47;1.37;;;;;;;;;;4995485;28;20197;-70
2022/03/16 13:14:06;;;;;;;0.00;0.00;;;;;;;;;;4994584;28;20264;-70
2022/03/16 13:16:34;;;;;;;3.87;3.10;;;;;;;;;;5009852;28;20212;-70
2022/03/16 13:19:03;;;;;;;0.33;0.33;;;;;;;;;;5011904;28;21673;-70
2022/03/16 13:21:33;;;;;;;1.00;1.00;;;;;;;;;;5007550;28;20209;-70
2022/03/16 13:24:11;;;;;;;0.87;0.67;;;;;;;;;;4998286;28;20231;-70
2022/03/16 13:26:39;;;;;;;12.23;2.90;;;;;;;;;;5000273;28;20293;-71
2022/03/16 13:29:10;;;;;;;0.53;0.53;;;;;;;;;;5002329;28;20331;-71
2022/03/16 13:31:39;;;;;;;0.37;0.37;;;;;;;;;;5006058;28;20201;-71
2022/03/16 13:34:08;;;;;;;0.00;0.00;;;;;;;;;;5004879;28;20273;-70
2022/03/16 13:36:42;;;;;;;0.67;0.67;;;;;;;;;;5000471;28;20209;-70
2022/03/16 13:39:20;;;;;;;2.33;1.80;;;;;;;;;;5002329;28;20690;-70
2022/03/16 13:42:07;;;;;;;2.57;2.00;;;;;;;;;;5006819;28;20536;-71
2022/03/16 13:44:40;;;;;;;0.43;0.17;;;;;;;;;;5003522;28;20200;-71
2022/03/16 13:47:08;;;;;;;6.03;3.37;;;;;;;;;;5005339;28;20572;-70
2022/03/16 13:49:38;;;;;;;0.67;0.57;;;;;;;;;;5005865;28;20204;-71
2022/03/16 13:52:07;;;;;;;1.03;0.73;;;;;;;;;;5005986;28;20200;-70
2022/03/16 13:54:35;;;;;;;0.00;0.00;;;;;;;;;;5000056;28;20245;-69
2022/03/16 13:57:10;;;;;;;0.33;0.27;;;;;;;;;;5001459;28;20284;-70
2022/03/16 13:59:37;;;;;;;0.20;0.20;;;;;;;;;;5004067;28;20225;-70
2022/03/16 14:02:14;;;;;;;0.47;0.47;;;;;;;;;;5005835;28;20295;-70
2022/03/16 14:04:43;;;;;;;3.67;2.67;;;;;;;;;;5002350;28;20214;-71
2022/03/16 14:07:26;;;;;;;1.20;1.20;;;;;;;;;;5004857;28;20196;-71
2022/03/16 14:09:55;;;;;;;0.40;0.40;;;;;;;;;;5001948;28;20748;-72
2022/03/16 14:12:23;;;;;;;1.53;0.53;;;;;;;;;;5001965;28;20627;-70
2022/03/16 14:15:00;;;;;;;1.40;1.07;;;;;;;;;;4998076;28;20215;-71
2022/03/16 14:17:40;;;;;;;2.57;2.00;;;;;;;;;;5000566;28;20210;-70
2022/03/16 14:20:13;;;;;;;0.43;0.30;;;;;;;;;;4992484;28;20212;-71
2022/03/16 14:22:42;;;;;;;1.67;1.43;;;;;;;;;;4992208;28;20292;-71
2022/03/16 14:25:19;;;;;;;0.20;0.20;;;;;;;;;;4994358;28;20199;-71
2022/03/16 14:27:49;;;;;;;4.70;2.03;;;;;;;;;;4992425;28;20198;-70
2022/03/16 14:30:18;;;;;;;1.37;1.33;;;;;;;;;;4990261;28;20209;-72
2022/03/16 14:32:47;;;;;;;2.53;2.30;;;;;;;;;;4991563;28;20236;-71
2022/03/16 14:35:16;;;;;;;0.10;0.10;;;;;;;;;;4992109;28;20214;-73
2022/03/16 14:37:45;;;;;;;4.37;3.07;;;;;;;;;;4992114;28;20208;-70
2022/03/16 14:40:15;;;;;;;1.07;0.60;;;;;;;;;;4993353;28;20228;-70
2022/03/16 14:42:43;;;;;;;0.40;0.40;;;;;;;;;;5000733;28;20240;-70
2022/03/16 14:45:11;;;;;;;2.53;1.20;;;;;;;;;;5013366;28;20201;-70
2022/03/16 14:47:38;;;;;;;0.00;0.00;;;;;;;;;;5012169;28;20212;-70
2022/03/16 14:50:06;;;;;;;0.73;0.37;;;;;;;;;;5011574;28;20192;-72
2022/03/16 14:52:34;;;;;;;1.27;1.00;;;;;;;;;;5011875;28;20197;-71
2022/03/16 14:55:03;;;;;;;0.10;0.10;;;;;;;;;;5011267;28;20211;-71
2022/03/16 14:57:30;;;;;;;1.07;0.40;;;;;;;;;;5011459;28;20670;-71
2022/03/16 14:59:58;;;;;;;1.23;0.10;;;;;;;;;;5014337;28;20584;-70
2022/03/16 15:02:25;;;;;;;0.73;0.20;;;;;;;;;;5016341;28;20291;-72
2022/03/16 15:04:53;;;;;;;0.23;0.23;;;;;;;;;;5023301;28;20224;-71
2022/03/16 15:07:21;;;;;;;0.07;0.07;;;;;;;;;;5011815;28;20578;-70
2022/03/16 15:09:48;;;;;;;1.13;1.13;;;;;;;;;;5011412;28;20586;-71
2022/03/16 15:12:18;;;;;;;3.33;3.03;;;;;;;;;;5011326;28;20561;-70
2022/03/16 15:14:45;;;;;;;0.00;0.00;;;;;;;;;;4997136;28;20228;-72
2022/03/16 15:17:13;;;;;;;0.00;0.00;;;;;;;;;;5012255;28;20220;-71